Time;durP1;ratioP1;P1;durP2;ratioP2;P2;SDS_P1;SDS_P2;PMS_P1;PMS_P2;Temp;Humidity;BMP_temperature;BMP_pressure;BME280_temperature;BME280_humidity;BME280_pressure;Samples;Min_cycle;Max_cycle;Signal;HPM_P1;HPM_P2
2023/02/14 00:00:07;;;;;;;18.08;11.18;;;21.20;99.90;;;;;;5010582;28;20049;-55
2023/02/14 00:02:33;;;;;;;20.77;12.05;;;21.30;99.90;;;;;;4999745;28;20054;-53
2023/02/14 00:04:59;;;;;;;19.85;11.75;;;21.20;99.90;;;;;;5022363;28;20538;-55
2023/02/14 00:07:25;;;;;;;16.50;10.55;;;21.20;99.90;;;;;;5015102;28;20228;-55
2023/02/14 00:09:51;;;;;;;20.70;11.63;;;21.20;99.90;;;;;;5009926;28;20044;-56
2023/02/14 00:12:16;;;;;;;19.27;10.85;;;21.20;99.90;;;;;;5007797;28;20379;-56
2023/02/14 00:15:42;;;;;;;18.48;11.48;;;21.20;99.90;;;;;;5021667;28;20395;-55
2023/02/14 00:17:37;;;;;;;18.65;11.18;;;21.20;99.90;;;;;;4996937;28;20117;-59
2023/02/14 00:20:03;;;;;;;18.75;11.77;;;21.10;99.90;;;;;;5014363;28;20394;-55
2023/02/14 00:22:29;;;;;;;20.52;12.27;;;21.10;99.90;;;;;;5026356;28;20423;-55
2023/02/14 00:24:54;;;;;;;19.88;12.00;;;21.10;99.90;;;;;;5025449;28;20030;-54
2023/02/14 00:27:20;;;;;;;21.88;12.20;;;21.10;99.90;;;;;;5026367;28;20029;-53
2023/02/14 00:29:46;;;;;;;20.50;12.70;;;21.10;99.90;;;;;;5022976;28;20410;-54
2023/02/14 00:32:12;;;;;;;17.75;11.52;;;21.10;99.90;;;;;;5020677;28;20022;-54
2023/02/14 00:34:39;;;;;;;18.42;11.70;;;21.10;99.90;;;;;;5023148;28;20034;-56
2023/02/14 00:37:05;;;;;;;22.75;12.30;;;21.10;99.90;;;;;;5018690;28;20139;-55
2023/02/14 00:39:31;;;;;;;17.38;11.48;;;21.10;99.90;;;;;;5024150;28;20045;-55
2023/02/14 00:41:57;;;;;;;16.83;11.82;;;21.10;99.90;;;;;;5009115;28;20261;-54
2023/02/14 00:44:23;;;;;;;19.38;12.18;;;21.10;99.90;;;;;;5020572;28;20033;-55
2023/02/14 00:46:49;;;;;;;18.10;11.82;;;21.10;99.90;;;;;;5021567;28;20033;-55
2023/02/14 00:49:15;;;;;;;20.42;12.60;;;21.10;99.90;;;;;;5021468;28;20031;-56
2023/02/14 00:51:41;;;;;;;17.13;11.60;;;21.10;99.90;;;;;;5030136;28;20025;-56
2023/02/14 00:54:07;;;;;;;19.50;12.20;;;21.10;99.90;;;;;;5017146;28;20112;-55
2023/02/14 00:56:33;;;;;;;17.02;12.20;;;21.10;99.90;;;;;;5019769;28;20017;-56
2023/02/14 01:01:30;;;;;;;21.10;12.45;;;21.10;99.90;;;;;;5013935;28;20050;-48
2023/02/14 01:03:57;;;;;;;18.17;11.43;;;21.10;99.90;;;;;;5026060;28;20033;-48
2023/02/14 01:06:23;;;;;;;23.85;12.68;;;21.10;99.90;;;;;;5010209;28;21211;-47
2023/02/14 01:08:49;;;;;;;20.27;13.20;;;21.10;99.90;;;;;;5016582;28;20034;-48
2023/02/14 01:11:18;;;;;;;21.85;12.25;;;21.10;99.90;;;;;;4992754;28;20171;-50
2023/02/14 01:13:44;;;;;;;20.50;11.75;;;21.00;99.90;;;;;;5025633;28;20580;-49
2023/02/14 01:16:13;;;;;;;17.48;11.45;;;21.00;99.90;;;;;;5011805;28;20037;-49
2023/02/14 01:18:40;;;;;;;21.65;11.30;;;21.00;99.90;;;;;;5021012;28;20017;-48
2023/02/14 01:21:28;;;;;;;16.67;10.90;;;21.00;99.90;;;;;;5007003;28;20034;-49
2023/02/14 01:23:57;;;;;;;16.35;10.70;;;21.00;99.90;;;;;;5017452;28;20014;-50
2023/02/14 01:26:24;;;;;;;17.85;11.55;;;21.00;99.90;;;;;;5012816;28;20489;-49
2023/02/14 01:28:50;;;;;;;18.23;11.55;;;21.00;99.90;;;;;;5021049;28;20065;-49
2023/02/14 01:31:18;;;;;;;17.95;10.77;;;21.00;99.90;;;;;;5025549;28;20061;-49
2023/02/14 01:33:46;;;;;;;18.55;11.27;;;21.00;99.90;;;;;;5022131;28;20068;-49
2023/02/14 01:36:26;;;;;;;17.08;10.52;;;21.00;99.90;;;;;;5003136;28;20038;-50
2023/02/14 01:38:55;;;;;;;18.30;10.68;;;21.00;99.90;;;;;;5005835;28;20105;-50
2023/02/14 01:41:22;;;;;;;17.35;10.57;;;21.00;99.90;;;;;;5022118;28;20122;-50
2023/02/14 01:43:52;;;;;;;19.65;11.75;;;21.00;99.90;;;;;;5018600;28;20044;-49
2023/02/14 01:46:18;;;;;;;17.35;10.43;;;21.00;99.90;;;;;;5020981;28;20389;-49
2023/02/14 01:48:45;;;;;;;15.77;10.07;;;21.00;99.90;;;;;;5026018;28;20501;-49
2023/02/14 01:51:12;;;;;;;16.75;10.15;;;20.90;99.90;;;;;;5020177;28;20082;-50
2023/02/14 01:53:38;;;;;;;15.52;10.35;;;20.90;99.90;;;;;;5025055;28;20471;-50
2023/02/14 01:56:10;;;;;;;15.82;10.40;;;20.90;99.90;;;;;;5013404;28;20057;-50
2023/02/14 01:58:40;;;;;;;16.63;10.00;;;20.90;99.90;;;;;;5006624;28;20052;-49
2023/02/14 02:01:06;;;;;;;16.55;9.93;;;20.90;99.90;;;;;;5042289;23;20053;-52
2023/02/14 02:03:37;;;;;;;15.15;10.45;;;20.90;99.90;;;;;;5028215;28;20036;-52
2023/02/14 02:06:22;;;;;;;17.30;10.32;;;20.90;99.90;;;;;;5018437;28;20045;-53
2023/02/14 02:08:56;;;;;;;19.38;11.30;;;20.90;99.90;;;;;;5023287;28;20442;-53
2023/02/14 02:11:22;;;;;;;17.05;9.95;;;20.90;99.90;;;;;;5029830;28;20021;-52
2023/02/14 02:13:48;;;;;;;16.77;9.85;;;20.90;99.90;;;;;;5032321;28;20399;-53
2023/02/14 02:16:24;;;;;;;19.23;10.73;;;20.90;99.90;;;;;;5029262;28;20029;-55
2023/02/14 02:19:03;;;;;;;17.80;10.15;;;20.80;99.90;;;;;;5023895;28;20083;-54
2023/02/14 02:21:47;;;;;;;16.33;9.50;;;20.80;99.90;;;;;;5032435;28;20375;-54
2023/02/14 02:24:17;;;;;;;14.80;9.77;;;20.80;99.90;;;;;;5019285;28;20030;-54
2023/02/14 02:27:04;;;;;;;15.80;9.18;;;20.80;99.90;;;;;;5032391;28;20044;-53
2023/02/14 02:30:01;;;;;;;15.55;9.55;;;20.80;99.90;;;;;;5032222;28;20029;-55
2023/02/14 02:32:40;;;;;;;19.30;9.80;;;20.80;99.90;;;;;;5016094;28;20026;-52
2023/02/14 02:35:23;;;;;;;16.17;9.07;;;20.80;99.90;;;;;;5012541;28;20061;-51
2023/02/14 02:38:04;;;;;;;15.60;8.73;;;20.80;99.90;;;;;;5022380;28;20033;-53
2023/02/14 02:41:06;;;;;;;13.85;9.23;;;20.70;99.90;;;;;;5032017;28;20494;-53
2023/02/14 02:43:51;;;;;;;13.57;8.38;;;20.70;99.90;;;;;;5032249;28;20467;-56
2023/02/14 02:56:44;;;;;;;13.65;8.88;;;20.70;99.90;;;;;;5032244;28;20052;-56
2023/02/14 02:58:20;;;;;;;15.85;8.35;;;20.60;99.90;;;;;;5021549;28;20033;-55
2023/02/14 03:00:49;;;;;;;10.93;7.15;;;20.60;99.90;;;;;;5032182;28;20045;-55
2023/02/14 03:06:00;;;;;;;12.65;7.50;;;20.60;99.90;;;;;;5025794;28;20033;-56
2023/02/14 03:08:26;;;;;;;13.93;7.93;;;20.60;99.90;;;;;;5012590;28;20021;-54
2023/02/14 03:10:52;;;;;;;17.48;9.18;;;20.60;99.90;;;;;;4994066;28;20395;-55
2023/02/14 03:13:49;;;;;;;13.40;8.65;;;20.60;99.90;;;;;;5010185;28;20018;-55
2023/02/14 03:16:36;;;;;;;12.27;6.80;;;20.60;99.90;;;;;;5012692;28;20051;-55
2023/02/14 03:19:13;;;;;;;15.73;8.30;;;20.60;99.90;;;;;;5014542;28;20266;-54
2023/02/14 03:21:42;;;;;;;14.40;8.15;;;20.50;99.90;;;;;;5031809;28;20024;-54
2023/02/14 03:24:21;;;;;;;14.35;7.93;;;20.50;99.90;;;;;;5030128;28;20171;-54
2023/02/14 03:26:53;;;;;;;12.30;7.78;;;20.50;99.90;;;;;;5031252;28;20103;-55
2023/02/14 03:29:36;;;;;;;11.85;7.22;;;20.50;99.90;;;;;;5031854;28;20167;-53
2023/02/14 03:32:50;;;;;;;11.52;7.75;;;20.50;99.90;;;;;;5030584;28;20030;-54
2023/02/14 03:35:29;;;;;;;12.07;6.82;;;20.50;99.90;;;;;;5019675;28;20045;-55
2023/02/14 03:38:11;;;;;;;9.90;7.88;;;20.50;99.90;;;;;;5030607;28;20030;-55
2023/02/14 03:41:00;;;;;;;14.07;7.70;;;20.50;99.90;;;;;;5031781;28;20100;-54
2023/02/14 03:43:34;;;;;;;12.93;8.38;;;20.50;99.90;;;;;;5033392;28;20031;-54
2023/02/14 03:46:38;;;;;;;11.40;7.30;;;20.50;99.90;;;;;;5035835;28;20029;-54
2023/02/14 03:49:09;;;;;;;14.15;8.00;;;20.40;99.90;;;;;;4964440;28;20419;-54
2023/02/14 03:51:36;;;;;;;13.80;7.63;;;20.40;99.90;;;;;;5032877;28;20031;-54
2023/02/14 03:54:06;;;;;;;11.37;7.37;;;20.40;99.90;;;;;;5034754;28;20059;-54
2023/02/14 03:56:38;;;;;;;16.33;7.93;;;20.40;99.90;;;;;;5034489;28;20434;-54
2023/02/14 03:59:18;;;;;;;12.05;7.65;;;20.40;99.90;;;;;;5034677;28;20151;-52
2023/02/14 04:02:01;;;;;;;11.95;7.30;;;20.40;99.90;;;;;;5033460;28;20060;-55
2023/02/14 04:04:31;;;;;;;12.63;7.18;;;20.40;99.90;;;;;;5035168;28;20018;-55
2023/02/14 04:06:57;;;;;;;11.07;7.53;;;20.40;99.90;;;;;;5017274;28;20506;-54
2023/02/14 04:09:23;;;;;;;14.90;7.20;;;20.40;99.90;;;;;;5032161;28;20035;-53
2023/02/14 04:11:49;;;;;;;12.38;6.85;;;20.40;99.90;;;;;;5034466;28;20033;-54
2023/02/14 04:14:16;;;;;;;14.20;8.57;;;20.40;99.90;;;;;;5035059;28;20026;-54
2023/02/14 04:19:27;;;;;;;12.60;7.82;;;20.30;99.90;;;;;;5013824;28;20076;-53
2023/02/14 04:21:52;;;;;;;11.50;7.45;;;20.30;99.90;;;;;;5014193;28;20080;-53
2023/02/14 04:24:19;;;;;;;11.38;7.63;;;20.30;99.90;;;;;;5013161;28;20026;-54
2023/02/14 04:27:04;;;;;;;14.23;7.32;;;20.30;99.90;;;;;;5015290;28;20054;-53
2023/02/14 04:29:30;;;;;;;14.73;7.38;;;20.30;99.90;;;;;;5014013;28;20028;-53
2023/02/14 04:31:56;;;;;;;14.82;7.93;;;20.30;99.90;;;;;;5014950;28;20101;-53
2023/02/14 04:34:21;;;;;;;14.77;7.18;;;20.30;99.90;;;;;;5014735;28;20022;-52
2023/02/14 04:36:47;;;;;;;11.52;6.70;;;20.30;99.90;;;;;;5027251;28;20038;-53
2023/02/14 04:39:13;;;;;;;13.43;6.70;;;20.30;99.90;;;;;;5034199;28;20415;-53
2023/02/14 04:41:39;;;;;;;16.75;7.85;;;20.30;99.90;;;;;;5034659;28;20100;-52
2023/02/14 04:44:04;;;;;;;13.40;6.15;;;20.30;99.90;;;;;;5033597;28;20108;-53
2023/02/14 04:46:30;;;;;;;9.88;6.45;;;20.30;99.90;;;;;;5033109;28;20104;-54
2023/02/14 04:48:56;;;;;;;16.63;6.88;;;20.20;99.90;;;;;;5033375;28;20023;-53
2023/02/14 04:51:21;;;;;;;13.25;7.05;;;20.20;99.90;;;;;;5033924;28;20057;-52
2023/02/14 04:53:47;;;;;;;11.25;6.40;;;20.20;99.90;;;;;;5033003;28;20017;-52
2023/02/14 04:56:13;;;;;;;13.00;6.93;;;20.20;99.90;;;;;;5034296;28;20142;-53
2023/02/14 04:58:39;;;;;;;10.77;7.25;;;20.20;99.90;;;;;;5034072;28;20422;-56
2023/02/14 05:01:04;;;;;;;11.63;6.68;;;20.20;99.90;;;;;;5035353;28;20050;-54
2023/02/14 05:03:30;;;;;;;11.55;6.30;;;20.20;99.90;;;;;;5034337;28;20036;-54
2023/02/14 05:05:56;;;;;;;10.48;6.55;;;20.20;99.90;;;;;;5034157;28;20163;-54
2023/02/14 05:08:22;;;;;;;16.02;7.10;;;20.20;99.90;;;;;;5034122;28;20018;-54
2023/02/14 05:10:48;;;;;;;14.23;6.70;;;20.20;99.90;;;;;;5034062;28;20434;-54
2023/02/14 05:13:14;;;;;;;11.88;7.10;;;20.20;99.90;;;;;;5033046;28;20021;-53
2023/02/14 05:15:39;;;;;;;10.82;6.95;;;20.20;99.90;;;;;;5034188;28;20037;-55
2023/02/14 05:18:05;;;;;;;12.18;6.30;;;20.20;99.90;;;;;;5034113;28;20479;-55
2023/02/14 05:20:31;;;;;;;12.25;6.72;;;20.10;99.90;;;;;;5034227;28;20045;-55
2023/02/14 05:23:02;;;;;;;12.38;7.00;;;20.10;99.90;;;;;;5033879;28;20037;-54
2023/02/14 05:25:29;;;;;;;10.95;6.43;;;20.10;99.90;;;;;;5033721;28;20094;-55
2023/02/14 05:27:55;;;;;;;13.32;6.57;;;20.10;99.90;;;;;;5015991;28;20025;-55
2023/02/14 05:30:26;;;;;;;10.77;6.97;;;20.10;99.90;;;;;;5033673;28;20537;-54
2023/02/14 05:32:53;;;;;;;11.88;6.80;;;20.10;99.90;;;;;;5033625;28;20029;-54
2023/02/14 05:35:19;;;;;;;12.82;6.72;;;20.10;99.90;;;;;;5015634;28;20044;-55
2023/02/14 05:37:45;;;;;;;14.70;7.00;;;20.10;99.90;;;;;;5033435;28;20112;-55
2023/02/14 05:40:12;;;;;;;16.52;7.18;;;20.00;99.90;;;;;;5033563;28;20083;-54
2023/02/14 05:42:38;;;;;;;13.10;6.95;;;20.00;99.90;;;;;;5033961;28;20018;-53
2023/02/14 05:45:05;;;;;;;11.65;6.90;;;20.00;99.90;;;;;;5033482;28;20065;-54
2023/02/14 05:47:31;;;;;;;13.30;7.18;;;20.00;99.90;;;;;;5015449;28;20471;-55
2023/02/14 05:49:57;;;;;;;11.38;7.22;;;20.10;99.90;;;;;;5033257;28;20082;-53
2023/02/14 05:52:23;;;;;;;12.18;7.80;;;20.00;99.90;;;;;;5033436;28;20104;-55
2023/02/14 05:54:49;;;;;;;13.50;7.70;;;20.00;99.90;;;;;;5033026;28;20041;-55
2023/02/14 05:57:14;;;;;;;13.05;7.05;;;20.00;99.90;;;;;;5033050;28;20017;-55
2023/02/14 05:59:40;;;;;;;13.23;8.15;;;20.00;99.90;;;;;;5032806;28;20501;-55
2023/02/14 06:02:06;;;;;;;12.52;8.02;;;20.00;99.90;;;;;;5031617;28;20040;-55
2023/02/14 06:04:32;;;;;;;14.30;8.23;;;20.00;99.90;;;;;;5014796;28;20025;-54
2023/02/14 06:06:57;;;;;;;13.32;8.82;;;20.00;99.90;;;;;;5033047;28;20132;-54
2023/02/14 06:09:23;;;;;;;18.20;8.10;;;20.00;99.90;;;;;;5032865;28;20399;-54
2023/02/14 06:11:49;;;;;;;13.98;8.80;;;20.00;99.90;;;;;;5032043;28;20053;-54
2023/02/14 06:14:15;;;;;;;15.05;8.57;;;20.00;99.90;;;;;;5032870;28;20148;-54
2023/02/14 06:16:41;;;;;;;14.43;8.20;;;20.00;99.90;;;;;;5014996;28;20479;-54
2023/02/14 06:19:06;;;;;;;15.55;9.10;;;19.90;99.90;;;;;;5033039;28;20026;-53
2023/02/14 06:21:32;;;;;;;13.43;8.48;;;19.90;99.90;;;;;;5032733;28;20368;-52
2023/02/14 06:23:58;;;;;;;13.00;7.65;;;19.90;99.90;;;;;;5032617;28;20022;-53
2023/02/14 06:26:27;;;;;;;13.82;8.35;;;19.90;99.90;;;;;;5032681;28;20483;-54
2023/02/14 06:28:54;;;;;;;15.45;8.68;;;19.90;99.90;;;;;;5032758;28;20075;-54
2023/02/14 06:31:21;;;;;;;13.82;8.13;;;19.90;99.90;;;;;;5015115;28;20033;-53
2023/02/14 06:33:46;;;;;;;15.38;8.80;;;19.90;99.90;;;;;;5032535;28;20025;-53
2023/02/14 06:36:12;;;;;;;14.35;8.85;;;19.90;99.90;;;;;;5032395;28;20033;-53
2023/02/14 06:38:38;;;;;;;16.10;8.50;;;19.90;99.90;;;;;;5032721;28;20100;-53
2023/02/14 06:41:06;;;;;;;15.25;8.77;;;19.90;99.90;;;;;;5032297;28;20470;-54
2023/02/14 06:43:32;;;;;;;13.32;7.88;;;19.80;99.90;;;;;;5032431;28;20411;-54
2023/02/14 06:45:57;;;;;;;17.13;9.55;;;19.90;99.90;;;;;;5032299;28;20034;-52
2023/02/14 06:48:23;;;;;;;13.95;9.02;;;19.80;99.90;;;;;;5014484;28;20025;-53
2023/02/14 06:50:49;;;;;;;13.75;8.07;;;19.80;99.90;;;;;;5032204;28;20494;-53
2023/02/14 06:53:15;;;;;;;14.65;7.75;;;19.80;99.90;;;;;;5032086;28;20029;-53
2023/02/14 06:55:40;;;;;;;15.02;8.60;;;19.80;99.90;;;;;;5032383;28;20394;-54
2023/02/14 06:58:06;;;;;;;11.40;7.70;;;19.80;99.90;;;;;;5032309;28;20036;-54
2023/02/14 07:00:32;;;;;;;15.25;8.55;;;19.80;99.90;;;;;;5031804;28;20073;-53
2023/02/14 07:02:58;;;;;;;16.17;8.15;;;19.80;99.90;;;;;;5031988;28;20387;-58
2023/02/14 07:05:24;;;;;;;14.57;8.48;;;19.80;99.90;;;;;;5031898;28;20040;-54
2023/02/14 07:07:49;;;;;;;18.88;9.52;;;19.80;99.90;;;;;;5031797;28;20032;-54
2023/02/14 07:10:15;;;;;;;17.10;9.25;;;19.80;99.90;;;;;;5031956;28;20164;-55
2023/02/14 07:12:41;;;;;;;17.05;8.45;;;19.80;99.90;;;;;;5014372;28;20030;-53
2023/02/14 07:15:09;;;;;;;17.52;9.30;;;19.70;99.90;;;;;;5014509;28;20048;-52
2023/02/14 07:17:35;;;;;;;17.23;9.45;;;19.70;99.90;;;;;;5035276;28;20029;-54
2023/02/14 07:20:01;;;;;;;14.57;9.10;;;19.70;99.90;;;;;;5036091;28;20100;-53
2023/02/14 07:22:27;;;;;;;20.27;11.00;;;19.70;99.90;;;;;;5036086;28;20048;-53
2023/02/14 07:24:53;;;;;;;15.20;10.00;;;19.70;99.90;;;;;;5035148;28;20506;-54
2023/02/14 07:27:19;;;;;;;18.48;9.32;;;19.70;99.90;;;;;;5032712;28;20366;-55
2023/02/14 07:29:44;;;;;;;16.08;8.93;;;19.70;99.90;;;;;;5034544;28;20075;-55
2023/02/14 07:32:10;;;;;;;16.95;9.15;;;19.70;99.90;;;;;;5033845;28;20498;-55
2023/02/14 07:34:36;;;;;;;15.88;9.57;;;19.70;99.90;;;;;;5035653;28;20418;-55
2023/02/14 07:37:02;;;;;;;16.40;9.65;;;19.70;99.90;;;;;;5034775;28;20056;-54
2023/02/14 07:39:27;;;;;;;16.30;8.32;;;19.70;99.90;;;;;;5035819;28;20119;-55
2023/02/14 07:41:53;;;;;;;15.73;9.45;;;19.70;99.90;;;;;;5035682;28;20041;-55
2023/02/14 07:44:19;;;;;;;16.50;10.32;;;19.70;99.90;;;;;;5035586;28;20125;-54
2023/02/14 07:46:45;;;;;;;23.30;10.05;;;19.70;99.90;;;;;;5035654;28;20025;-55
2023/02/14 07:49:11;;;;;;;13.63;9.50;;;19.70;99.90;;;;;;5035664;28;20081;-55
2023/02/14 07:51:36;;;;;;;17.98;9.45;;;19.60;99.90;;;;;;5035397;28;20021;-55
2023/02/14 07:54:02;;;;;;;11.52;8.27;;;19.70;99.90;;;;;;5035203;28;20036;-54
2023/02/14 07:56:28;;;;;;;16.88;9.38;;;19.60;99.90;;;;;;5035383;28;20030;-55
2023/02/14 07:58:54;;;;;;;15.43;9.88;;;19.60;99.90;;;;;;5035270;28;20021;-56
2023/02/14 08:01:20;;;;;;;16.52;9.57;;;19.60;99.90;;;;;;5035189;28;20478;-55
2023/02/14 08:03:48;;;;;;;15.50;8.70;;;19.60;99.90;;;;;;5035328;28;20068;-54
2023/02/14 08:06:24;;;;;;;17.42;10.07;;;19.60;99.90;;;;;;5035406;28;20021;-55
2023/02/14 08:08:50;;;;;;;14.82;9.48;;;19.70;99.90;;;;;;5035119;28;20464;-54
2023/02/14 08:14:03;;;;;;;16.42;9.52;;;19.60;99.90;;;;;;4994224;28;20048;-54
2023/02/14 08:16:32;;;;;;;14.23;9.40;;;19.60;99.90;;;;;;5034940;28;20487;-54
2023/02/14 08:18:59;;;;;;;13.25;8.93;;;19.60;99.90;;;;;;5017388;28;20026;-55
2023/02/14 08:21:25;;;;;;;17.63;10.02;;;19.60;99.90;;;;;;5034835;28;20029;-55
2023/02/14 08:23:50;;;;;;;16.27;9.52;;;19.60;99.90;;;;;;5017145;28;20029;-55
2023/02/14 08:26:16;;;;;;;15.88;9.75;;;19.60;99.90;;;;;;5034727;28;20025;-56
2023/02/14 08:28:43;;;;;;;14.75;9.48;;;19.60;99.90;;;;;;5034743;28;20044;-56
2023/02/14 08:31:09;;;;;;;14.43;9.48;;;19.60;99.90;;;;;;5034630;28;20021;-56
2023/02/14 08:33:35;;;;;;;13.23;8.48;;;19.60;99.90;;;;;;5034616;28;20467;-56
2023/02/14 08:36:01;;;;;;;15.23;9.52;;;19.60;99.90;;;;;;5034748;28;20044;-55
2023/02/14 08:38:28;;;;;;;17.83;9.32;;;19.60;99.90;;;;;;5034750;28;20029;-56
2023/02/14 08:40:58;;;;;;;14.00;8.38;;;19.60;99.90;;;;;;5034607;28;20029;-56
2023/02/14 08:43:23;;;;;;;13.52;9.25;;;19.60;99.90;;;;;;5034356;28;20383;-56
2023/02/14 08:45:52;;;;;;;16.75;9.82;;;19.60;99.90;;;;;;5034464;28;20033;-55
2023/02/14 08:48:18;;;;;;;17.70;9.35;;;19.60;99.90;;;;;;5034347;28;20036;-56
2023/02/14 08:50:44;;;;;;;18.95;10.52;;;19.60;99.90;;;;;;5034483;28;20503;-56
2023/02/14 08:53:11;;;;;;;12.00;8.45;;;19.60;99.90;;;;;;5034208;28;20060;-57
2023/02/14 08:55:38;;;;;;;15.82;9.18;;;19.60;99.90;;;;;;5034051;28;20033;-55
2023/02/14 08:58:04;;;;;;;12.45;8.68;;;19.60;99.90;;;;;;5034132;28;20507;-56
2023/02/14 09:00:31;;;;;;;12.38;8.88;;;19.60;99.90;;;;;;5034067;28;20129;-57
2023/02/14 09:02:57;;;;;;;16.85;8.70;;;19.60;99.90;;;;;;5034219;28;20021;-57
2023/02/14 09:05:24;;;;;;;15.07;9.13;;;19.60;99.90;;;;;;5034155;28;20117;-55
2023/02/14 09:07:50;;;;;;;13.45;8.35;;;19.60;99.90;;;;;;5033944;28;20023;-55
2023/02/14 09:10:17;;;;;;;14.57;8.80;;;19.60;99.90;;;;;;5034165;28;20064;-55
2023/02/14 09:12:44;;;;;;;16.17;8.77;;;19.60;99.90;;;;;;5033603;28;20102;-56
2023/02/14 09:15:10;;;;;;;14.93;8.63;;;19.60;99.90;;;;;;5032932;28;20045;-55
2023/02/14 09:17:37;;;;;;;11.93;7.90;;;19.60;99.90;;;;;;5033351;28;20020;-55
2023/02/14 09:20:05;;;;;;;12.90;8.00;;;19.60;99.90;;;;;;5030423;28;20036;-56
2023/02/14 09:22:32;;;;;;;14.88;8.05;;;19.60;99.90;;;;;;5032281;28;20060;-56
2023/02/14 09:24:58;;;;;;;15.75;8.15;;;19.60;99.90;;;;;;5033243;28;20087;-55
2023/02/14 09:27:24;;;;;;;17.15;9.77;;;19.60;99.90;;;;;;5033302;28;20127;-56
2023/02/14 09:29:50;;;;;;;19.02;8.57;;;19.60;99.90;;;;;;5033682;28;20554;-55
2023/02/14 09:32:17;;;;;;;12.32;7.78;;;19.60;99.90;;;;;;5033597;28;20101;-54
2023/02/14 09:34:43;;;;;;;17.65;7.72;;;19.60;99.90;;;;;;5033287;28;20025;-55
2023/02/14 09:39:57;;;;;;;14.90;9.02;;;19.60;99.90;;;;;;5029802;28;20036;-58
2023/02/14 09:42:34;;;;;;;15.52;8.10;;;19.60;99.90;;;;;;5032817;28;20026;-61
2023/02/14 09:45:03;;;;;;;;;;;19.60;99.90;;;;;;5029737;28;20029;-56
2023/02/14 09:47:49;;;;;;;14.07;7.28;;;19.70;99.90;;;;;;5032708;28;19906;-56
2023/02/14 09:50:24;;;;;;;13.35;7.30;;;19.70;99.90;;;;;;5032391;28;20036;-59
2023/02/14 09:52:55;;;;;;;17.25;8.13;;;19.60;99.90;;;;;;5032806;28;20104;-58
2023/02/14 09:55:22;;;;;;;12.80;8.32;;;19.60;99.90;;;;;;5032280;28;20034;-55
2023/02/14 09:58:19;;;;;;;25.23;8.15;;;19.70;99.90;;;;;;5015001;28;20032;-57
2023/02/14 10:00:58;;;;;;;14.77;7.47;;;19.70;99.90;;;;;;5004963;28;20042;-56
2023/02/14 10:03:42;;;;;;;14.05;7.50;;;19.70;99.90;;;;;;5032838;28;20415;-56
2023/02/14 10:06:13;;;;;;;14.85;7.57;;;19.70;99.90;;;;;;4998621;28;20036;-56
2023/02/14 10:08:54;;;;;;;13.43;7.53;;;19.70;99.90;;;;;;5032871;28;20039;-56
2023/02/14 10:11:23;;;;;;;19.02;9.43;;;19.70;99.90;;;;;;5033106;28;20025;-57
2023/02/14 10:14:02;;;;;;;14.75;8.55;;;19.70;99.90;;;;;;5032939;28;20021;-56
2023/02/14 10:16:38;;;;;;;16.60;7.88;;;19.70;99.90;;;;;;5032773;28;20549;-55
2023/02/14 10:19:27;;;;;;;15.70;7.40;;;19.70;99.90;;;;;;5032645;28;20087;-56
2023/02/14 10:22:11;;;;;;;12.48;7.38;;;19.70;99.90;;;;;;5032512;28;20029;-56
2023/02/14 10:25:00;;;;;;;16.20;8.35;;;19.70;99.90;;;;;;5031187;28;20041;-56
2023/02/14 10:27:38;;;;;;;19.35;8.35;;;19.70;99.90;;;;;;5031225;28;20427;-56
2023/02/14 10:30:21;;;;;;;17.17;8.80;;;19.70;99.90;;;;;;5031158;28;20475;-56
2023/02/14 10:33:03;;;;;;;15.85;7.72;;;19.70;99.90;;;;;;5014395;28;20026;-59
2023/02/14 10:35:47;;;;;;;20.65;8.40;;;19.80;99.90;;;;;;5014932;28;20033;-57
2023/02/14 10:38:24;;;;;;;17.58;9.15;;;19.80;99.90;;;;;;5032423;28;20021;-56
2023/02/14 10:40:59;;;;;;;18.05;9.27;;;19.80;99.90;;;;;;5032577;28;20026;-56
2023/02/14 10:43:47;;;;;;;16.20;10.10;;;19.90;99.90;;;;;;5032393;28;20028;-56
2023/02/14 10:46:31;;;;;;;19.75;10.07;;;19.90;99.90;;;;;;5032382;28;20029;-57
2023/02/14 10:49:24;;;;;;;17.23;10.63;;;20.00;99.90;;;;;;5032342;28;20029;-57
2023/02/14 10:52:12;;;;;;;17.73;9.63;;;20.10;99.90;;;;;;5032468;28;20037;-56
2023/02/14 10:54:41;;;;;;;16.25;9.38;;;20.20;99.90;;;;;;5031130;28;20495;-54
2023/02/14 10:57:16;;;;;;;21.02;10.18;;;20.20;99.90;;;;;;5032200;28;20036;-56
2023/02/14 11:00:19;;;;;;;16.83;9.65;;;20.20;99.90;;;;;;5031774;28;20029;-56
2023/02/14 11:02:49;;;;;;;14.65;8.85;;;20.30;99.90;;;;;;5000543;28;20092;-56
2023/02/14 11:05:24;;;;;;;16.27;9.52;;;20.30;99.90;;;;;;5031910;28;20067;-56
2023/02/14 11:07:50;;;;;;;18.95;9.38;;;20.40;99.90;;;;;;5032074;28;20084;-56
2023/02/14 11:10:19;;;;;;;17.80;10.05;;;20.40;99.90;;;;;;5031715;28;20391;-55
2023/02/14 11:12:44;;;;;;;17.00;9.10;;;20.50;99.90;;;;;;5031780;28;20124;-54
2023/02/14 11:15:32;;;;;;;18.42;10.23;;;20.50;99.90;;;;;;5031887;28;20499;-54
2023/02/14 11:18:08;;;;;;;;;;;20.50;99.90;;;;;;5032161;28;20059;-54
2023/02/14 11:20:35;;;;;;;14.40;8.70;;;20.60;99.90;;;;;;5031972;28;19956;-54
2023/02/14 11:23:16;;;;;;;19.35;9.63;;;20.70;99.90;;;;;;5031971;28;20258;-53
2023/02/14 11:25:50;;;;;;;18.73;8.43;;;20.70;99.90;;;;;;5031755;28;20033;-54
2023/02/14 11:28:18;;;;;;;17.02;9.00;;;20.80;99.90;;;;;;5031823;28;20029;-54
2023/02/14 11:30:47;;;;;;;20.65;8.38;;;20.80;99.90;;;;;;5031210;28;20028;-55
2023/02/14 11:33:34;;;;;;;16.35;9.15;;;20.80;99.90;;;;;;5031137;28;20166;-56
2023/02/14 11:36:02;;;;;;;17.08;8.55;;;20.80;99.90;;;;;;5031154;28;20041;-55
2023/02/14 11:38:35;;;;;;;18.92;8.45;;;20.90;99.90;;;;;;5031556;28;20481;-55
2023/02/14 11:41:02;;;;;;;14.07;8.00;;;20.90;99.90;;;;;;5031521;28;20033;-54
2023/02/14 11:43:42;;;;;;;18.42;8.45;;;20.90;99.90;;;;;;5031327;28;20017;-54
2023/02/14 11:46:13;;;;;;;17.15;8.75;;;21.00;99.90;;;;;;5031566;28;20045;-53
2023/02/14 11:51:24;;;;;;;12.88;7.97;;;21.10;99.90;;;;;;5013475;28;20068;-53
2023/02/14 11:53:54;;;;;;;14.48;7.75;;;21.10;99.90;;;;;;5013698;28;20025;-53
2023/02/14 11:56:22;;;;;;;16.58;7.28;;;21.10;99.90;;;;;;5031477;28;20084;-52
2023/02/14 11:59:03;;;;;;;12.63;7.30;;;21.10;99.90;;;;;;5031607;28;20014;-52
2023/02/14 12:01:34;;;;;;;14.77;8.05;;;21.10;99.90;;;;;;5031187;28;20080;-52
2023/02/14 12:04:06;;;;;;;14.50;7.25;;;21.20;99.90;;;;;;5035374;28;20018;-52
2023/02/14 12:06:35;;;;;;;12.85;7.00;;;21.20;99.90;;;;;;5035394;28;20036;-52
2023/02/14 12:09:10;;;;;;;21.42;8.50;;;21.20;99.90;;;;;;5035447;28;20029;-52
2023/02/14 12:11:37;;;;;;;15.80;6.88;;;21.20;99.90;;;;;;5034738;28;20026;-53
2023/02/14 12:14:04;;;;;;;13.90;6.88;;;21.20;99.90;;;;;;5034898;28;20025;-53
2023/02/14 12:16:49;;;;;;;15.90;7.00;;;21.20;99.90;;;;;;5035067;28;20037;-53
2023/02/14 12:19:33;;;;;;;20.08;7.35;;;21.20;99.90;;;;;;5034812;28;20387;-54
2023/02/14 12:22:03;;;;;;;17.10;6.95;;;21.20;99.90;;;;;;5034730;28;20033;-51
2023/02/14 12:25:10;;;;;;;11.80;6.97;;;21.20;99.90;;;;;;5034344;28;20025;-52
2023/02/14 12:27:36;;;;;;;;;;;21.20;99.90;;;;;;4955020;28;20430;-52
2023/02/14 12:30:13;;;;;;;11.27;6.90;;;21.20;99.90;;;;;;5034905;28;19905;-52
2023/02/14 12:32:53;;;;;;;12.50;6.63;;;21.20;99.90;;;;;;5034539;28;20487;-53
2023/02/14 12:36:14;;;;;;;14.23;6.18;;;21.10;99.90;;;;;;5033812;28;20087;-52
2023/02/14 12:38:48;;;;;;;11.18;6.30;;;21.10;99.90;;;;;;5000963;28;20423;-53
2023/02/14 12:41:15;;;;;;;12.95;6.40;;;21.10;99.90;;;;;;5030902;28;20347;-54
2023/02/14 12:43:49;;;;;;;14.25;7.10;;;21.10;99.90;;;;;;5028427;28;20013;-53
2023/02/14 12:46:52;;;;;;;17.92;6.82;;;21.10;99.90;;;;;;5018015;28;20109;-53
2023/02/14 12:49:52;;;;;;;16.35;6.80;;;21.00;99.90;;;;;;5014865;28;20029;-53
2023/02/14 12:52:23;;;;;;;16.52;7.20;;;21.00;99.90;;;;;;5022982;28;20040;-55
2023/02/14 12:54:52;;;;;;;14.23;7.65;;;21.00;99.90;;;;;;5013596;28;20026;-56
2023/02/14 12:57:37;;;;;;;15.13;6.90;;;21.00;99.90;;;;;;5013436;28;20030;-56
2023/02/14 13:00:32;;;;;;;15.95;7.47;;;21.00;99.90;;;;;;5014598;28;20049;-52
2023/02/14 13:03:04;;;;;;;18.60;7.32;;;21.00;99.90;;;;;;5008981;28;20527;-53
2023/02/14 13:06:28;;;;;;;17.08;7.60;;;21.00;99.90;;;;;;5013609;28;20037;-53
2023/02/14 13:09:09;;;;;;;12.65;7.03;;;21.00;99.90;;;;;;4939553;28;20121;-53
2023/02/14 13:12:04;;;;;;;21.35;7.80;;;21.00;99.90;;;;;;4966155;28;20030;-52
2023/02/14 13:14:54;;;;;;;13.68;7.55;;;21.00;99.90;;;;;;4966451;28;20034;-53
2023/02/14 13:17:23;;;;;;;11.98;6.72;;;21.00;99.90;;;;;;4998294;28;20030;-52
2023/02/14 13:20:10;;;;;;;11.07;6.43;;;21.00;99.90;;;;;;5018313;28;20109;-50
2023/02/14 13:22:36;;;;;;;16.10;8.23;;;21.00;99.90;;;;;;5016181;28;20109;-53